Time;durP1;ratioP1;P1;durP2;ratioP2;P2;SDS_P1;SDS_P2;PMS_P1;PMS_P2;Temp;Humidity;BMP_temperature;BMP_pressure;BME280_temperature;BME280_humidity;BME280_pressure;Samples;Min_cycle;Max_cycle;Signal;HPM_P1;HPM_P2
2021/08/30 00:00:53;;;;;;;0.36;0.17;;;;;;;14.24;89.26;99404.44;2022733;77;21112;-77
2021/08/30 00:03:56;;;;;;;0.20;0.20;;;;;;;14.16;89.53;99407.19;2022990;80;20217;-77
2021/08/30 00:07:00;;;;;;;0.20;0.20;;;;;;;14.12;89.61;99403.78;2019228;80;20887;-77
2021/08/30 00:10:05;;;;;;;1.13;0.20;;;;;;;14.10;89.47;99400.34;2022947;80;20313;-77
2021/08/30 00:13:07;;;;;;;0.59;0.25;;;;;;;14.06;89.32;99400.44;2023277;80;20254;-77
2021/08/30 00:16:10;;;;;;;0.61;0.29;;;;;;;14.01;89.13;99400.53;2022223;78;20269;-77
2021/08/30 00:19:13;;;;;;;0.29;0.20;;;;;;;13.91;88.95;99396.34;2023923;80;20183;-77
2021/08/30 00:22:15;;;;;;;0.47;0.24;;;;;;;13.84;89.17;99399.97;2022838;80;20197;-77
2021/08/30 00:25:18;;;;;;;1.20;0.20;;;;;;;13.75;89.42;99402.72;2023572;80;20240;-77
2021/08/30 00:28:21;;;;;;;0.30;0.30;;;;;;;13.70;89.46;99396.72;2023198;80;20693;-78
2021/08/30 00:31:26;;;;;;;1.11;0.79;;;;;;;13.65;89.50;99399.41;2022091;78;20356;-77
2021/08/30 00:34:29;;;;;;;0.20;0.20;;;;;;;13.61;89.52;99395.09;2022602;80;20175;-77
2021/08/30 00:37:33;;;;;;;1.35;0.26;;;;;;;13.54;89.81;99391.75;2022957;80;20167;-78
2021/08/30 00:40:37;;;;;;;0.20;0.20;;;;;;;13.53;89.94;99389.16;2023231;80;20163;-77
2021/08/30 00:43:39;;;;;;;0.39;0.30;;;;;;;13.49;90.09;99385.75;2022959;80;20708;-77
2021/08/30 00:46:42;;;;;;;0.28;0.20;;;;;;;13.47;90.33;99384.94;2022058;77;20236;-77
2021/08/30 00:49:45;;;;;;;1.84;0.20;;;;;;;13.48;90.57;99386.66;2023638;80;20183;-77
2021/08/30 00:52:48;;;;;;;0.20;0.20;;;;;;;13.49;90.75;99395.34;2023179;80;20196;-77
2021/08/30 00:55:52;;;;;;;0.21;0.20;;;;;;;13.49;90.98;99388.38;2022350;80;20758;-77
2021/08/30 00:58:55;;;;;;;0.79;0.20;;;;;;;13.52;91.08;99388.31;2023003;80;20232;-78
2021/08/30 01:01:58;;;;;;;0.50;0.22;;;;;;;13.53;91.34;99390.03;2018234;77;20183;-78
2021/08/30 01:05:02;;;;;;;1.30;0.30;;;;;;;13.55;91.42;99387.41;2017546;80;20175;-77
2021/08/30 01:08:10;;;;;;;0.45;0.30;;;;;;;13.57;91.42;99388.22;2017195;80;20197;-77
2021/08/30 01:11:18;;;;;;;1.40;0.19;;;;;;;13.56;91.33;99378.69;2018036;80;21166;-77
2021/08/30 01:14:23;;;;;;;0.20;0.20;;;;;;;13.55;91.41;99377.81;2017916;80;20172;-77
2021/08/30 01:17:27;;;;;;;0.20;0.20;;;;;;;13.56;91.64;99376.94;2019806;77;20790;-76
2021/08/30 01:20:44;;;;;;;0.61;0.20;;;;;;;13.59;91.75;99378.63;2022710;80;20233;-77
2021/08/30 01:23:55;;;;;;;0.84;0.19;;;;;;;13.62;91.72;99370.75;2022448;80;20377;-77
2021/08/30 01:27:00;;;;;;;0.30;0.20;;;;;;;13.63;91.78;99374.22;2023056;80;20640;-76
2021/08/30 01:30:08;;;;;;;1.31;0.30;;;;;;;13.67;91.77;99378.50;2022996;80;20213;-76
2021/08/30 01:33:11;;;;;;;0.34;0.20;;;;;;;13.72;91.91;99381.91;2019428;78;20807;-76
2021/08/30 01:36:14;;;;;;;0.41;0.30;;;;;;;13.74;91.90;99383.59;2017639;80;21001;-76
2021/08/30 01:39:17;;;;;;;0.50;0.40;;;;;;;13.78;91.97;99382.63;2018221;80;20291;-77
2021/08/30 01:42:21;;;;;;;0.52;0.40;;;;;;;13.81;92.09;99381.72;2018011;80;20595;-77
2021/08/30 01:45:28;;;;;;;0.91;0.40;;;;;;;13.85;91.99;99376.44;2017233;77;22505;-76
2021/08/30 01:48:31;;;;;;;0.82;0.38;;;;;;;13.88;92.13;99383.34;2023099;80;20220;-77
2021/08/30 01:51:35;;;;;;;0.84;0.84;;;;;;;13.91;91.90;99385.91;2018861;80;20183;-77
2021/08/30 01:54:39;;;;;;;1.56;0.50;;;;;;;13.96;91.71;99383.19;2023733;80;20211;-77
2021/08/30 02:00:43;;;;;;;1.00;0.57;;;;;;;13.98;91.82;99382.28;2022757;80;20225;-77
2021/08/30 02:01:18;;;;;;;0.50;0.50;;;;;;;13.98;91.78;99390.09;2020116;77;21437;-76
2021/08/30 02:04:21;;;;;;;0.40;0.40;;;;;;;13.97;91.94;99379.69;2019460;80;20824;-77
2021/08/30 02:07:23;;;;;;;0.50;0.50;;;;;;;13.96;92.08;99378.84;2018103;80;20194;-77
2021/08/30 02:10:26;;;;;;;0.98;0.44;;;;;;;14.00;92.06;99371.81;2019305;80;20160;-77
2021/08/30 02:13:29;;;;;;;0.95;0.50;;;;;;;14.04;92.05;99378.72;2019025;80;20353;-77
2021/08/30 02:16:32;;;;;;;0.40;0.40;;;;;;;14.04;92.14;99376.09;2020462;77;25202;-77
2021/08/30 02:19:43;;;;;;;1.45;0.64;;;;;;;14.08;92.08;99372.53;2023917;80;20189;-77
2021/08/30 02:22:46;;;;;;;1.63;0.70;;;;;;;14.11;91.97;99375.94;2023754;80;20230;-77
2021/08/30 02:25:50;;;;;;;1.15;0.70;;;;;;;14.13;91.95;99382.00;2024327;80;20171;-77
2021/08/30 02:28:54;;;;;;;0.73;0.57;;;;;;;14.15;91.75;99375.00;2024283;80;20248;-77
2021/08/30 02:32:03;;;;;;;0.50;0.50;;;;;;;14.16;91.74;99373.25;2016496;78;29439;-76
2021/08/30 02:35:08;;;;;;;1.44;0.52;;;;;;;14.16;91.71;99378.47;2019666;80;20630;-77
2021/08/30 02:38:13;;;;;;;0.59;0.59;;;;;;;14.16;91.79;99370.63;2019233;80;20172;-77
2021/08/30 02:41:16;;;;;;;0.54;0.54;;;;;;;14.16;91.81;99374.09;2020000;80;20194;-76
2021/08/30 02:44:19;;;;;;;0.56;0.51;;;;;;;14.17;91.99;99373.22;2022329;80;20208;-79
2021/08/30 02:47:23;;;;;;;0.59;0.55;;;;;;;14.21;92.12;99376.66;2026734;77;24652;-80
2021/08/30 02:50:27;;;;;;;1.40;0.51;;;;;;;14.23;92.21;99377.47;2028957;80;20842;-79
2021/08/30 02:53:32;;;;;;;1.64;0.51;;;;;;;14.24;92.37;99373.97;2027569;80;20262;-79
2021/08/30 02:56:36;;;;;;;1.46;0.54;;;;;;;14.25;92.32;99377.44;2025076;80;20179;-79
2021/08/30 02:59:40;;;;;;;0.63;0.60;;;;;;;14.28;91.94;99378.22;2025807;80;20193;-80
2021/08/30 03:02:44;;;;;;;0.81;0.71;;;;;;;14.30;91.95;99383.44;2021284;77;22422;-79
2021/08/30 03:05:48;;;;;;;0.59;0.50;;;;;;;14.31;91.83;99379.91;2020067;80;20278;-77
2021/08/30 03:08:51;;;;;;;1.89;0.59;;;;;;;14.30;91.98;99380.81;2021926;80;20246;-79
2021/08/30 03:11:56;;;;;;;2.56;0.80;;;;;;;14.28;92.18;99387.81;2022841;80;20247;-80
2021/08/30 03:15:03;;;;;;;1.11;0.54;;;;;;;14.24;92.16;99379.19;2022181;80;20207;-79
2021/08/30 03:18:10;;;;;;;1.26;0.70;;;;;;;14.18;92.34;99376.69;2021119;77;21755;-79
2021/08/30 03:21:13;;;;;;;3.95;0.70;;;;;;;14.16;92.53;99373.25;2020443;80;20159;-80
2021/08/30 03:24:19;;;;;;;0.71;0.60;;;;;;;14.15;92.84;99375.00;2023451;80;20168;-81
2021/08/30 03:27:23;;;;;;;0.93;0.69;;;;;;;14.16;92.87;99365.41;2019587;80;20205;-80
2021/08/30 03:30:26;;;;;;;0.75;0.60;;;;;;;14.14;93.06;99361.97;2021230;77;20759;-80
2021/08/30 03:33:29;;;;;;;0.74;0.64;;;;;;;14.12;93.05;99361.13;2029506;80;20317;-80
2021/08/30 03:36:33;;;;;;;1.14;0.64;;;;;;;14.11;93.12;99359.41;2030444;80;20168;-80
2021/08/30 03:39:36;;;;;;;1.86;0.61;;;;;;;14.11;92.92;99380.31;2024026;80;20171;-80
2021/08/30 03:42:40;;;;;;;1.59;0.81;;;;;;;14.06;93.09;99374.31;2030448;80;20187;-80
2021/08/30 03:45:45;;;;;;;0.70;0.70;;;;;;;14.10;92.88;99383.81;2029265;78;23198;-80
2021/08/30 03:48:48;;;;;;;0.76;0.76;;;;;;;14.07;93.13;99378.66;2021903;80;20452;-79
2021/08/30 03:51:52;;;;;;;1.34;0.69;;;;;;;14.07;93.20;99369.06;2022475;80;20666;-80
2021/08/30 03:54:55;;;;;;;1.71;0.80;;;;;;;14.07;93.05;99361.22;2026757;80;20558;-81
2021/08/30 03:57:59;;;;;;;0.89;0.74;;;;;;;14.05;92.91;99372.59;2026150;80;20242;-81
2021/08/30 04:01:05;;;;;;;0.73;0.73;;;;;;;14.04;92.70;99370.88;2024051;77;22547;-80
2021/08/30 04:04:14;;;;;;;2.17;0.93;;;;;;;14.07;92.42;99387.34;2026767;80;20650;-80
2021/08/30 04:07:18;;;;;;;1.77;0.82;;;;;;;14.02;92.59;99383.97;2025679;80;20184;-80
2021/08/30 04:10:21;;;;;;;1.59;0.89;;;;;;;13.99;92.85;99381.38;2022115;80;20210;-80
2021/08/30 04:13:23;;;;;;;4.80;1.60;;;;;;;13.94;92.76;99378.00;2023754;80;20197;-80
2021/08/30 04:16:26;;;;;;;1.08;0.80;;;;;;;13.93;93.06;99373.69;2026122;77;22923;-80
2021/08/30 04:19:29;;;;;;;1.86;0.94;;;;;;;13.95;93.19;99382.34;2028502;80;20187;-80
2021/08/30 04:22:35;;;;;;;0.90;0.90;;;;;;;13.95;93.27;99371.91;2025337;80;20248;-79
2021/08/30 04:25:37;;;;;;;1.10;1.00;;;;;;;13.94;93.42;99379.75;2024336;80;20171;-79
2021/08/30 04:28:40;;;;;;;2.53;0.90;;;;;;;13.97;93.64;99366.66;2024227;80;20209;-79
2021/08/30 04:31:43;;;;;;;2.44;0.91;;;;;;;13.99;93.57;99375.31;2025311;80;20171;-79
2021/08/30 04:34:46;;;;;;;1.63;0.84;;;;;;;14.01;93.55;99371.81;2025225;80;20211;-78
2021/08/30 04:37:49;;;;;;;1.55;1.06;;;;;;;14.01;93.63;99377.03;2025475;80;20280;-79
2021/08/30 04:40:51;;;;;;;0.93;0.90;;;;;;;14.05;93.65;99375.22;2024147;80;20270;-79
2021/08/30 04:43:54;;;;;;;1.01;0.80;;;;;;;14.05;93.60;99377.81;2025312;80;20186;-79
2021/08/30 04:46:56;;;;;;;0.93;0.90;;;;;;;14.09;93.29;99382.09;2021431;78;22209;-79
2021/08/30 04:49:59;;;;;;;1.00;0.90;;;;;;;14.11;93.17;99383.78;2018597;80;20597;-79
2021/08/30 04:53:02;;;;;;;1.48;1.00;;;;;;;14.13;93.30;99394.19;2020092;80;20217;-80
2021/08/30 04:56:05;;;;;;;1.40;0.93;;;;;;;14.12;93.57;99393.34;2020490;80;20238;-80
2021/08/30 04:59:08;;;;;;;1.58;0.91;;;;;;;14.13;93.60;99397.66;2021771;80;20259;-79
2021/08/30 05:02:11;;;;;;;5.15;1.19;;;;;;;14.12;93.62;99401.16;2020862;77;20656;-80
2021/08/30 05:05:14;;;;;;;1.96;0.94;;;;;;;14.12;93.66;99401.16;2020353;80;20172;-80
2021/08/30 05:08:19;;;;;;;2.09;0.80;;;;;;;14.09;93.61;99398.63;2021381;80;20721;-80
2021/08/30 05:11:22;;;;;;;1.56;1.05;;;;;;;14.08;93.66;99401.25;2023114;80;20193;-79
2021/08/30 05:14:25;;;;;;;1.34;1.10;;;;;;;14.08;93.66;99406.47;2024300;80;20237;-80
2021/08/30 05:17:27;;;;;;;0.90;0.90;;;;;;;14.09;93.92;99409.06;2025098;77;23170;-83
2021/08/30 05:20:30;;;;;;;2.09;0.90;;;;;;;14.12;93.90;99405.53;2034635;80;20239;-83
2021/08/30 05:23:33;;;;;;;1.63;0.99;;;;;;;14.14;93.90;99407.22;2030445;80;20120;-83
2021/08/30 05:26:36;;;;;;;1.09;0.90;;;;;;;14.17;93.80;99412.38;2033271;80;20160;-84
2021/08/30 05:29:39;;;;;;;0.94;0.85;;;;;;;14.19;93.62;99412.38;2031098;80;20164;-83
2021/08/30 05:32:42;;;;;;;2.54;0.80;;;;;;;14.20;93.57;99417.56;2037285;78;28934;-83
2021/08/30 05:35:44;;;;;;;2.95;0.90;;;;;;;14.21;93.56;99421.03;2036325;80;20234;-82
2021/08/30 05:38:47;;;;;;;5.32;0.98;;;;;;;14.21;93.50;99416.69;2038855;80;20220;-82
2021/08/30 05:41:50;;;;;;;5.05;0.96;;;;;;;14.20;93.52;99424.53;2033333;80;20196;-81
2021/08/30 05:44:52;;;;;;;0.91;0.91;;;;;;;14.17;93.54;99424.56;2034784;80;20275;-82
2021/08/30 05:47:55;;;;;;;1.50;0.93;;;;;;;14.19;93.67;99423.69;2033249;77;21792;-82
2021/08/30 05:50:58;;;;;;;2.15;1.19;;;;;;;14.22;93.69;99422.75;2035503;80;20203;-83
2021/08/30 05:54:00;;;;;;;1.75;1.45;;;;;;;14.26;93.60;99423.56;2035678;80;20183;-81
2021/08/30 05:57:03;;;;;;;1.38;0.99;;;;;;;14.28;93.67;99422.63;2032871;80;20159;-82
2021/08/30 06:00:07;;;;;;;1.60;0.90;;;;;;;14.32;93.76;99436.50;2032962;80;20275;-81
2021/08/30 06:03:10;;;;;;;1.44;1.05;;;;;;;14.35;93.83;99434.69;2034097;80;20171;-80
2021/08/30 06:06:12;;;;;;;0.99;0.94;;;;;;;14.37;93.96;99426.84;2030440;80;20179;-82
2021/08/30 06:09:15;;;;;;;1.50;0.98;;;;;;;14.40;93.92;99429.38;2037417;80;20182;-81
2021/08/30 06:12:18;;;;;;;1.16;1.00;;;;;;;14.45;93.64;99431.03;2035738;80;20190;-82
2021/08/30 06:15:21;;;;;;;0.74;0.74;;;;;;;14.52;93.38;99430.03;2037433;77;24041;-82
2021/08/30 06:18:25;;;;;;;1.20;1.10;;;;;;;14.57;93.28;99429.09;2029575;80;20213;-82
2021/08/30 06:21:28;;;;;;;5.57;1.31;;;;;;;14.61;93.23;99428.13;2024988;80;20188;-82
2021/08/30 06:24:30;;;;;;;1.96;1.40;;;;;;;14.65;93.12;99435.00;2031475;80;20176;-85
2021/08/30 06:27:33;;;;;;;2.40;1.16;;;;;;;14.65;93.29;99438.50;2028964;80;20197;-84
2021/08/30 06:30:36;;;;;;;1.21;1.16;;;;;;;14.66;93.29;99434.97;2028232;77;22952;-83
2021/08/30 06:33:39;;;;;;;1.84;1.41;;;;;;;14.69;93.19;99439.28;2031135;80;20262;-83
2021/08/30 06:36:41;;;;;;;2.54;1.25;;;;;;;14.71;92.98;99434.88;2029179;80;20242;-83
2021/08/30 06:39:44;;;;;;;1.21;1.11;;;;;;;14.75;92.88;99445.25;2034189;80;20192;-84
2021/08/30 06:42:52;;;;;;;1.92;1.29;;;;;;;14.76;92.86;99438.28;2034584;80;20147;-85
2021/08/30 06:45:55;;;;;;;1.69;1.59;;;;;;;14.78;92.76;99437.34;2033821;78;20857;-84
2021/08/30 06:48:57;;;;;;;1.38;1.27;;;;;;;14.81;92.94;99441.66;2033270;80;20197;-83
2021/08/30 06:52:00;;;;;;;1.46;1.23;;;;;;;14.81;92.87;99437.28;2027640;80;20273;-81
2021/08/30 06:55:03;;;;;;;4.64;2.11;;;;;;;14.85;92.87;99437.22;2030622;80;20243;-84
2021/08/30 06:58:05;;;;;;;1.56;1.46;;;;;;;14.85;92.98;99443.31;2032156;80;20195;-84
2021/08/30 07:01:08;;;;;;;1.71;1.52;;;;;;;14.92;93.10;99451.91;2031225;78;22387;-84
2021/08/30 07:04:11;;;;;;;1.73;1.45;;;;;;;14.97;93.05;99442.19;2030015;80;20355;-84
2021/08/30 07:07:14;;;;;;;1.85;1.63;;;;;;;15.01;93.23;99439.47;2032985;80;20190;-82
2021/08/30 07:10:17;;;;;;;1.83;1.73;;;;;;;15.05;93.31;99437.66;2030036;80;20287;-84
2021/08/30 07:13:19;;;;;;;2.15;1.92;;;;;;;15.13;93.16;99438.34;2029707;80;20175;-84
2021/08/30 07:16:22;;;;;;;2.44;2.08;;;;;;;15.20;92.99;99439.94;2034228;78;21227;-84
2021/08/30 07:19:24;;;;;;;2.60;2.40;;;;;;;15.24;92.84;99433.72;2035997;80;20201;-84
2021/08/30 07:22:27;;;;;;;2.21;2.03;;;;;;;15.34;92.75;99442.25;2035270;80;20192;-83
2021/08/30 07:25:29;;;;;;;3.24;1.80;;;;;;;15.43;92.91;99434.16;2035521;80;20196;-84
2021/08/30 07:28:32;;;;;;;1.85;1.74;;;;;;;15.57;93.17;99436.47;2032617;80;20175;-83
2021/08/30 07:31:35;;;;;;;2.76;2.21;;;;;;;15.69;92.98;99442.31;2032992;80;20175;-82
2021/08/30 07:34:37;;;;;;;3.66;2.30;;;;;;;15.90;92.77;99440.91;2034221;80;20171;-86
2021/08/30 07:37:40;;;;;;;5.22;2.36;;;;;;;16.16;92.48;99439.41;2035442;80;20268;-85
2021/08/30 07:40:44;;;;;;;5.32;2.91;;;;;;;16.43;91.66;99440.41;2036647;80;20187;-85
2021/08/30 07:43:48;;;;;;;4.18;3.44;;;;;;;16.71;91.08;99441.41;2127290;68;20206;-85
2021/08/30 07:46:51;;;;;;;5.20;4.03;;;;;;;16.95;89.96;99452.94;2036033;77;207576;-86
2021/08/30 07:49:54;;;;;;;5.64;4.38;;;;;;;17.15;88.68;99447.09;2040347;79;20154;-85
2021/08/30 07:56:20;;;;;;;8.14;4.93;;;;;;;17.38;86.19;99444.59;2063563;69;20219;-85
2021/08/30 07:59:23;;;;;;;6.63;5.06;;;;;;;17.53;85.15;99456.41;2041661;79;20172;-79
2021/08/30 08:02:26;;;;;;;7.10;5.22;;;;;;;17.65;84.60;99449.91;2038379;77;20186;-83
2021/08/30 08:05:28;;;;;;;6.10;4.44;;;;;;;17.78;84.54;99453.91;2041526;79;20214;-84
2021/08/30 08:08:31;;;;;;;6.49;4.79;;;;;;;17.85;83.58;99458.03;2046035;79;20177;-82
2021/08/30 08:11:34;;;;;;;5.24;4.74;;;;;;;17.90;82.67;99455.25;2041734;79;20173;-82
2021/08/30 08:14:37;;;;;;;5.99;5.30;;;;;;;17.99;82.18;99462.84;2105952;69;20212;-82
2021/08/30 08:17:40;;;;;;;6.64;5.00;;;;;;;18.03;80.68;99470.56;2034824;77;190020;-83
2021/08/30 08:20:43;;;;;;;6.18;5.26;;;;;;;18.16;80.32;99471.00;2035415;79;20182;-84
2021/08/30 08:23:46;;;;;;;6.04;5.45;;;;;;;18.28;80.08;99474.97;2041206;79;20206;-84
2021/08/30 08:26:50;;;;;;;6.13;5.26;;;;;;;18.31;78.96;99478.38;2041111;79;20201;-85
2021/08/30 08:29:53;;;;;;;7.57;5.21;;;;;;;18.32;78.35;99480.09;2039516;79;20269;-85
2021/08/30 08:32:55;;;;;;;5.79;5.24;;;;;;;18.29;77.29;99479.31;2033188;77;20193;-80
2021/08/30 08:35:58;;;;;;;6.24;5.44;;;;;;;18.27;77.46;99470.63;2032133;79;20676;-82
2021/08/30 08:39:00;;;;;;;5.50;5.03;;;;;;;18.29;77.75;99479.31;2035835;79;20284;-81
2021/08/30 08:42:03;;;;;;;7.65;4.97;;;;;;;18.30;76.92;99475.75;2032461;79;21122;-82
2021/08/30 08:45:09;;;;;;;6.40;5.14;;;;;;;18.32;77.45;99481.84;2033028;79;20170;-82
2021/08/30 08:48:11;;;;;;;5.80;5.16;;;;;;;18.35;77.98;99484.38;2036053;79;20227;-82
2021/08/30 08:51:16;;;;;;;5.60;5.07;;;;;;;18.42;78.30;99484.09;2038427;79;20248;-82
2021/08/30 08:54:18;;;;;;;5.86;5.32;;;;;;;18.54;78.43;99484.59;2039257;79;20197;-82
2021/08/30 08:57:21;;;;;;;6.21;5.29;;;;;;;18.64;78.08;99488.63;2038820;79;20208;-82
2021/08/30 09:00:24;;;;;;;6.07;5.38;;;;;;;18.68;77.52;99482.38;2037595;79;20173;-82
2021/08/30 09:03:27;;;;;;;5.76;5.03;;;;;;;18.77;78.38;99487.28;2039213;79;20185;-80
2021/08/30 09:06:33;;;;;;;6.00;5.40;;;;;;;18.87;78.61;99491.31;2035230;79;20161;-82
2021/08/30 09:09:38;;;;;;;6.54;5.24;;;;;;;18.94;77.51;99492.78;2038135;79;20283;-82
2021/08/30 09:12:42;;;;;;;5.69;5.11;;;;;;;18.95;76.03;99491.88;2037170;79;20170;-81
2021/08/30 09:15:45;;;;;;;5.75;5.25;;;;;;;18.96;75.97;99498.00;2033971;77;20274;-81
2021/08/30 09:18:48;;;;;;;5.93;5.39;;;;;;;18.93;74.25;99498.09;2034989;79;20190;-81
2021/08/30 09:21:51;;;;;;;5.50;5.00;;;;;;;18.92;74.10;99499.03;2035552;79;20183;-81
2021/08/30 09:25:04;;;;;;;5.68;5.15;;;;;;;18.93;74.88;99492.84;2035978;79;20226;-81
2021/08/30 09:28:06;;;;;;;5.19;4.79;;;;;;;18.93;73.76;99496.34;2035083;79;20713;-81
2021/08/30 09:31:09;;;;;;;6.14;5.54;;;;;;;18.98;74.00;99488.25;2034673;77;20166;-82
2021/08/30 09:34:15;;;;;;;5.82;4.97;;;;;;;19.00;73.78;99486.44;2033019;79;20315;-80
2021/08/30 09:37:22;;;;;;;5.66;5.13;;;;;;;19.08;73.90;99487.03;2033991;79;20174;-82
2021/08/30 09:40:27;;;;;;;5.69;5.19;;;;;;;19.20;73.96;99494.44;2031886;79;20174;-80
2021/08/30 09:43:30;;;;;;;5.39;4.60;;;;;;;19.30;74.19;99493.19;2029864;79;20579;-80
2021/08/30 09:46:32;;;;;;;5.66;4.84;;;;;;;19.37;73.01;99499.06;2032950;77;21055;-82
2021/08/30 09:49:36;;;;;;;7.05;5.06;;;;;;;19.45;73.43;99494.38;2038364;80;20198;-82
2021/08/30 09:52:38;;;;;;;5.93;5.32;;;;;;;19.49;71.11;99492.47;2036801;80;20192;-83
2021/08/30 09:55:42;;;;;;;6.10;5.04;;;;;;;19.58;71.04;99492.16;2039461;80;20180;-83
2021/08/30 09:58:47;;;;;;;5.78;4.38;;;;;;;19.58;69.67;99490.38;2035026;80;20176;-81
2021/08/30 10:01:54;;;;;;;4.93;4.53;;;;;;;19.68;70.48;99492.63;2040468;77;23988;-83
2021/08/30 10:05:03;;;;;;;5.97;4.76;;;;;;;19.76;70.51;99498.47;2044761;79;20199;-83
2021/08/30 10:08:06;;;;;;;5.80;5.30;;;;;;;19.84;68.76;99493.72;2045460;79;20223;-83
2021/08/30 10:11:09;;;;;;;7.14;4.89;;;;;;;19.86;68.09;99491.88;2043989;79;20260;-83
2021/08/30 10:14:16;;;;;;;6.40;4.70;;;;;;;19.94;67.93;99492.44;2041911;79;20324;-81
2021/08/30 10:17:19;;;;;;;4.69;4.29;;;;;;;20.00;67.79;99488.69;2039938;77;20820;-81
2021/08/30 10:20:28;;;;;;;5.22;4.82;;;;;;;20.08;66.44;99494.50;2042269;79;20162;-82
2021/08/30 10:23:36;;;;;;;6.38;5.71;;;;;;;20.16;66.56;99493.28;2041302;79;20189;-82
2021/08/30 10:26:41;;;;;;;5.16;4.76;;;;;;;20.25;67.41;99491.16;2042394;79;20161;-83
2021/08/30 10:29:44;;;;;;;5.34;4.84;;;;;;;20.30;66.53;99497.97;2045615;79;20174;-85
2021/08/30 10:32:53;;;;;;;5.60;5.13;;;;;;;20.36;67.36;99504.75;2045069;77;26189;-85
2021/08/30 10:35:56;;;;;;;5.32;4.90;;;;;;;20.35;66.09;99500.41;2041647;79;20166;-83
2021/08/30 10:42:27;;;;;;;7.15;5.70;;;;;;;20.35;65.45;99500.41;2045605;69;20191;-83
2021/08/30 10:45:43;;;;;;;4.91;4.44;;;;;;;20.34;64.18;99507.47;2032481;77;20206;-81
2021/08/30 10:48:50;;;;;;;5.82;5.22;;;;;;;20.34;63.51;99507.47;2032436;79;20167;-81
2021/08/30 10:52:10;;;;;;;5.76;4.88;;;;;;;20.42;64.44;99504.50;2032207;79;20224;-81
2021/08/30 10:55:17;;;;;;;4.97;4.57;;;;;;;20.45;64.37;99513.16;2032862;79;20170;-80
2021/08/30 10:58:26;;;;;;;5.55;5.06;;;;;;;20.46;63.58;99509.59;2030851;79;20649;-80
2021/08/30 11:01:28;;;;;;;5.14;4.50;;;;;;;20.49;64.94;99508.63;2031186;77;20565;-80
2021/08/30 11:04:34;;;;;;;5.46;4.41;;;;;;;20.55;64.63;99511.00;2033138;79;20186;-81
2021/08/30 11:07:37;;;;;;;5.19;4.61;;;;;;;20.54;64.10;99508.41;2031246;79;20214;-80
2021/08/30 11:10:40;;;;;;;6.19;4.74;;;;;;;20.52;64.12;99501.44;2030531;79;20251;-80
2021/08/30 11:13:56;;;;;;;5.54;4.74;;;;;;;20.56;64.44;99510.06;2031023;79;20695;-79
2021/08/30 11:16:59;;;;;;;4.90;4.50;;;;;;;20.52;62.86;99504.06;2025794;77;21346;-80
2021/08/30 11:20:04;;;;;;;5.44;4.69;;;;;;;20.55;64.28;99504.84;2026644;80;20183;-80
2021/08/30 11:23:13;;;;;;;4.53;4.19;;;;;;;20.55;63.60;99497.78;2024291;80;20687;-80
2021/08/30 11:26:16;;;;;;;5.10;4.11;;;;;;;20.52;63.26;99498.78;2025702;80;20193;-81
2021/08/30 11:29:19;;;;;;;5.10;4.70;;;;;;;20.61;64.32;99501.94;2026010;80;20221;-80
2021/08/30 11:32:24;;;;;;;4.74;4.29;;;;;;;20.70;64.74;99506.84;2032535;79;20630;-83
2021/08/30 11:35:27;;;;;;;4.65;4.19;;;;;;;20.80;65.69;99502.84;2036053;79;20266;-83
2021/08/30 11:38:29;;;;;;;4.45;4.15;;;;;;;20.90;63.11;99503.31;2034294;79;20162;-82
2021/08/30 11:41:35;;;;;;;4.56;4.10;;;;;;;21.00;63.09;99505.44;2031783;79;20729;-72
2021/08/30 11:44:40;;;;;;;6.86;4.79;;;;;;;21.07;61.07;99498.97;2031921;79;20227;-80
2021/08/30 11:47:43;;;;;;;4.32;3.96;;;;;;;21.17;61.88;99502.03;2030566;76;20222;-80
2021/08/30 11:50:45;;;;;;;4.61;4.21;;;;;;;21.27;62.34;99502.53;2032327;79;20435;-80
2021/08/30 11:53:48;;;;;;;5.26;4.86;;;;;;;21.30;61.38;99500.59;2032156;79;20215;-80
2021/08/30 11:56:56;;;;;;;4.99;4.47;;;;;;;21.33;61.43;99505.72;2031716;79;20715;-81
2021/08/30 12:00:00;;;;;;;4.97;4.51;;;;;;;21.39;60.60;99508.09;2033280;79;21015;-80
2021/08/30 12:03:14;;;;;;;4.76;3.94;;;;;;;21.40;60.00;99498.38;2020761;77;22172;-80
2021/08/30 12:06:20;;;;;;;4.59;4.15;;;;;;;21.51;59.16;99492.56;2024081;80;20185;-81
2021/08/30 12:09:23;;;;;;;5.75;4.53;;;;;;;21.59;59.01;99499.22;2022838;80;20183;-80
2021/08/30 12:15:57;;;;;;;4.76;4.36;;;;;;;21.56;59.24;99499.38;2021799;77;20183;-82
2021/08/30 12:19:00;;;;;;;5.00;4.00;;;;;;;21.46;57.72;99491.94;2022692;80;20875;-81
2021/08/30 12:22:04;;;;;;;6.47;4.19;;;;;;;21.41;58.50;99500.09;2021655;80;20183;-79
2021/08/30 12:25:10;;;;;;;5.22;4.25;;;;;;;21.43;60.82;99498.25;2023050;80;20187;-81
2021/08/30 12:28:15;;;;;;;6.14;4.43;;;;;;;21.36;60.45;99505.59;2022925;80;20172;-80
2021/08/30 12:31:31;;;;;;;6.95;4.94;;;;;;;21.25;61.08;99510.50;2024402;77;22843;-81
2021/08/30 12:34:41;;;;;;;4.90;4.40;;;;;;;21.12;61.80;99512.81;2030805;79;20224;-81
2021/08/30 12:37:43;;;;;;;5.24;4.76;;;;;;;21.04;63.05;99511.47;2032526;79;20166;-81
2021/08/30 12:40:49;;;;;;;5.29;4.89;;;;;;;21.04;62.40;99511.47;2031439;79;20162;-80
2021/08/30 12:43:52;;;;;;;5.84;5.31;;;;;;;21.00;60.65;99521.28;2032978;79;20179;-81
2021/08/30 12:46:54;;;;;;;5.20;4.72;;;;;;;21.01;60.32;99516.91;2028180;77;21523;-81
2021/08/30 12:49:57;;;;;;;5.15;4.65;;;;;;;21.02;61.03;99516.81;2026945;80;20203;-80
2021/08/30 12:52:59;;;;;;;5.57;4.21;;;;;;;21.07;61.77;99512.19;2027852;80;20180;-83
2021/08/30 12:56:02;;;;;;;6.35;5.22;;;;;;;21.16;61.55;99513.53;2030228;80;20202;-79
2021/08/30 12:59:05;;;;;;;7.55;4.35;;;;;;;21.32;61.79;99504.00;2025999;80;20672;-80
2021/08/30 13:02:08;;;;;;;4.78;4.38;;;;;;;21.41;60.13;99508.03;2029823;76;20183;-79
2021/08/30 13:05:13;;;;;;;4.40;4.10;;;;;;;21.50;59.71;99504.06;2030933;79;20192;-81
2021/08/30 13:08:16;;;;;;;5.24;4.74;;;;;;;21.53;58.32;99503.94;2030318;79;20966;-81
2021/08/30 13:11:19;;;;;;;5.21;4.70;;;;;;;21.70;58.71;99506.63;2031860;79;20174;-80
2021/08/30 13:14:21;;;;;;;7.38;4.68;;;;;;;21.79;57.69;99506.19;2032841;79;20203;-82
2021/08/30 13:17:24;;;;;;;5.03;4.63;;;;;;;21.66;55.57;99510.34;2027739;77;23417;-81
2021/08/30 13:20:27;;;;;;;4.66;4.26;;;;;;;21.70;57.74;99507.47;2024475;80;20755;-80
2021/08/30 13:23:30;;;;;;;6.89;4.49;;;;;;;21.72;57.51;99507.41;2023473;80;20215;-79
2021/08/30 13:26:49;;;;;;;5.49;4.03;;;;;;;21.72;57.77;99507.41;2022927;80;20201;-80
2021/08/30 13:29:52;;;;;;;5.38;4.47;;;;;;;21.74;57.84;99502.94;2022856;80;20207;-80
2021/08/30 13:32:57;;;;;;;4.50;4.14;;;;;;;21.76;58.38;99501.06;2026153;77;130402;-80
2021/08/30 13:36:01;;;;;;;8.51;4.26;;;;;;;21.71;58.24;99498.63;2031548;79;20205;-85
2021/08/30 13:39:04;;;;;;;5.47;4.32;;;;;;;21.61;57.73;99493.88;2032877;79;20178;-81
2021/08/30 13:42:07;;;;;;;4.95;4.60;;;;;;;21.52;58.18;99496.94;2032991;79;20170;-81
2021/08/30 13:45:11;;;;;;;6.16;4.97;;;;;;;21.42;57.79;99494.75;2029707;80;20178;-81
2021/08/30 13:48:14;;;;;;;5.30;4.50;;;;;;;21.37;58.75;99491.47;2026075;77;21872;-81
2021/08/30 13:51:18;;;;;;;5.14;4.63;;;;;;;21.35;59.62;99487.16;2027319;80;20256;-81
2021/08/30 13:54:20;;;;;;;5.66;4.59;;;;;;;21.40;59.64;99499.25;2026932;80;20646;-81
2021/08/30 13:57:23;;;;;;;4.69;4.29;;;;;;;21.49;59.92;99487.38;2028315;80;20222;-81
2021/08/30 14:00:26;;;;;;;4.78;4.36;;;;;;;21.95;59.92;99488.66;2026036;80;20190;-81
2021/08/30 14:03:29;;;;;;;8.94;4.86;;;;;;;22.46;57.78;99479.06;2026834;80;20175;-81
2021/08/30 14:06:34;;;;;;;5.56;5.06;;;;;;;22.86;55.74;99480.50;2025632;80;20199;-81
2021/08/30 14:09:44;;;;;;;6.36;4.95;;;;;;;22.94;55.35;99476.56;2026206;80;20277;-81
2021/08/30 14:12:47;;;;;;;5.66;5.24;;;;;;;23.04;55.96;99481.31;2026589;80;20175;-81
2021/08/30 14:15:50;;;;;;;5.15;4.63;;;;;;;23.22;55.59;99482.09;2024333;77;21184;-81
2021/08/30 14:18:53;;;;;;;5.54;4.97;;;;;;;23.31;53.44;99478.94;2024327;80;20163;-81
2021/08/30 14:21:56;;;;;;;4.81;4.22;;;;;;;23.26;52.68;99473.03;2026281;80;20175;-81
2021/08/30 14:24:59;;;;;;;4.71;4.35;;;;;;;23.38;54.18;99471.50;2026607;80;20174;-81
2021/08/30 14:28:02;;;;;;;5.07;4.57;;;;;;;23.53;54.08;99473.31;2026994;80;20192;-81
2021/08/30 14:31:05;;;;;;;4.51;4.10;;;;;;;23.53;49.82;99470.66;2030182;76;172981;-81
2021/08/30 14:34:07;;;;;;;4.22;3.90;;;;;;;23.72;50.70;99466.06;2031567;79;20167;-80
2021/08/30 14:37:10;;;;;;;4.00;3.74;;;;;;;23.69;49.72;99463.56;2032925;79;20183;-81